sensor_id;sensor_type;location;lat;lon;timestamp;pressure;altitude;pressure_sealevel;temperature;humidity
20710;BME280;10516;51.518;9.864;2023-08-31T00:02:09;97957.13;;;15.08;76.22
20710;BME280;10516;51.518;9.864;2023-08-31T00:04:34;97967.97;;;15.17;75.67
20710;BME280;10516;51.518;9.864;2023-08-31T00:07:00;97959.00;;;14.80;77.47
20710;BME280;10516;51.518;9.864;2023-08-31T00:09:25;97958.09;;;14.98;77.02
20710;BME280;10516;51.518;9.864;2023-08-31T00:11:51;97957.31;;;14.84;76.92
20710;BME280;10516;51.518;9.864;2023-08-31T00:14:16;97973.50;;;14.66;78.08
20710;BME280;10516;51.518;9.864;2023-08-31T00:16:42;97961.91;;;14.97;77.18
20710;BME280;10516;51.518;9.864;2023-08-31T00:19:08;97966.06;;;14.90;76.81
20710;BME280;10516;51.518;9.864;2023-08-31T00:21:34;97971.06;;;15.10;76.39
20710;BME280;10516;51.518;9.864;2023-08-31T00:23:59;97968.28;;;15.01;76.55
20710;BME280;10516;51.518;9.864;2023-08-31T00:26:25;97958.31;;;14.88;76.26
20710;BME280;10516;51.518;9.864;2023-08-31T00:28:50;97994.75;;;14.94;76.46
20710;BME280;10516;51.518;9.864;2023-08-31T00:31:16;97985.47;;;15.00;76.43
20710;BME280;10516;51.518;9.864;2023-08-31T00:33:41;97965.66;;;14.96;75.96
20710;BME280;10516;51.518;9.864;2023-08-31T00:36:07;97979.72;;;14.93;76.29
20710;BME280;10516;51.518;9.864;2023-08-31T00:38:32;97991.25;;;15.08;76.19
20710;BME280;10516;51.518;9.864;2023-08-31T00:40:58;97980.41;;;14.85;77.10
20710;BME280;10516;51.518;9.864;2023-08-31T00:43:24;97992.88;;;14.49;77.65
20710;BME280;10516;51.518;9.864;2023-08-31T00:45:51;97979.34;;;14.54;77.64
20710;BME280;10516;51.518;9.864;2023-08-31T00:48:21;97995.22;;;14.69;77.57
20710;BME280;10516;51.518;9.864;2023-08-31T00:50:48;97990.69;;;14.51;77.88
20710;BME280;10516;51.518;9.864;2023-08-31T00:53:14;98005.72;;;14.52;78.11
20710;BME280;10516;51.518;9.864;2023-08-31T00:55:40;98013.50;;;14.35;77.70
20710;BME280;10516;51.518;9.864;2023-08-31T00:58:07;98003.28;;;14.37;78.20
20710;BME280;10516;51.518;9.864;2023-08-31T01:00:40;97997.31;;;14.40;77.33
20710;BME280;10516;51.518;9.864;2023-08-31T01:03:22;98002.06;;;14.75;76.43
20710;BME280;10516;51.518;9.864;2023-08-31T01:06:11;98010.44;;;14.74;76.70
20710;BME280;10516;51.518;9.864;2023-08-31T01:09:04;98003.75;;;14.20;78.72
20710;BME280;10516;51.518;9.864;2023-08-31T01:11:58;97995.75;;;14.02;78.95
20710;BME280;10516;51.518;9.864;2023-08-31T01:14:29;97999.47;;;14.70;75.86
20710;BME280;10516;51.518;9.864;2023-08-31T01:16:58;98002.66;;;14.59;75.73
20710;BME280;10516;51.518;9.864;2023-08-31T01:19:48;97997.97;;;14.64;75.65
20710;BME280;10516;51.518;9.864;2023-08-31T01:22:18;97995.81;;;14.34;77.01
20710;BME280;10516;51.518;9.864;2023-08-31T01:24:47;97992.94;;;14.76;75.33
20710;BME280;10516;51.518;9.864;2023-08-31T01:27:12;97992.91;;;14.31;75.29
20710;BME280;10516;51.518;9.864;2023-08-31T01:29:38;98020.03;;;14.29;76.95
20710;BME280;10516;51.518;9.864;2023-08-31T01:32:06;98014.41;;;14.31;77.14
20710;BME280;10516;51.518;9.864;2023-08-31T01:34:33;98006.41;;;13.88;77.58
20710;BME280;10516;51.518;9.864;2023-08-31T01:37:05;98000.22;;;13.88;78.37
20710;BME280;10516;51.518;9.864;2023-08-31T01:39:42;98015.28;;;14.58;75.67
20710;BME280;10516;51.518;9.864;2023-08-31T01:42:11;98023.91;;;14.55;75.03
20710;BME280;10516;51.518;9.864;2023-08-31T01:44:39;98023.94;;;14.37;76.47
20710;BME280;10516;51.518;9.864;2023-08-31T01:47:06;98025.28;;;13.60;78.97
20710;BME280;10516;51.518;9.864;2023-08-31T01:49:38;98027.84;;;13.88;78.39
20710;BME280;10516;51.518;9.864;2023-08-31T01:52:05;98015.44;;;14.11;77.06
20710;BME280;10516;51.518;9.864;2023-08-31T01:54:31;98030.88;;;14.56;75.28
20710;BME280;10516;51.518;9.864;2023-08-31T01:56:56;98010.47;;;14.55;75.10
20710;BME280;10516;51.518;9.864;2023-08-31T01:59:22;98022.63;;;14.15;76.80
20710;BME280;10516;51.518;9.864;2023-08-31T02:01:47;98009.28;;;14.29;75.59
20710;BME280;10516;51.518;9.864;2023-08-31T02:04:12;98018.47;;;14.42;75.84
20710;BME280;10516;51.518;9.864;2023-08-31T02:06:38;98022.28;;;14.41;75.62
20710;BME280;10516;51.518;9.864;2023-08-31T02:09:03;98034.81;;;14.45;75.90
20710;BME280;10516;51.518;9.864;2023-08-31T02:11:28;98027.69;;;14.54;75.37
20710;BME280;10516;51.518;9.864;2023-08-31T02:13:54;98029.88;;;14.52;75.14
20710;BME280;10516;51.518;9.864;2023-08-31T02:16:19;98033.44;;;14.48;75.63
20710;BME280;10516;51.518;9.864;2023-08-31T02:18:44;98024.00;;;14.50;75.15
20710;BME280;10516;51.518;9.864;2023-08-31T02:21:10;98031.53;;;14.48;75.81
20710;BME280;10516;51.518;9.864;2023-08-31T02:23:35;98026.97;;;14.49;75.20
20710;BME280;10516;51.518;9.864;2023-08-31T02:26:00;98025.63;;;14.33;75.63
20710;BME280;10516;51.518;9.864;2023-08-31T02:28:26;98032.88;;;14.64;74.83
20710;BME280;10516;51.518;9.864;2023-08-31T02:30:58;98020.53;;;14.50;75.37
20710;BME280;10516;51.518;9.864;2023-08-31T02:33:24;98029.22;;;14.42;75.43
20710;BME280;10516;51.518;9.864;2023-08-31T02:35:50;98032.72;;;14.42;75.50
20710;BME280;10516;51.518;9.864;2023-08-31T02:38:15;98027.19;;;14.52;75.15
20710;BME280;10516;51.518;9.864;2023-08-31T02:40:41;98040.25;;;14.72;74.54
20710;BME280;10516;51.518;9.864;2023-08-31T02:43:07;98029.88;;;14.52;74.75
20710;BME280;10516;51.518;9.864;2023-08-31T02:45:32;98031.38;;;14.58;75.15
20710;BME280;10516;51.518;9.864;2023-08-31T02:47:57;98038.00;;;14.47;74.80
20710;BME280;10516;51.518;9.864;2023-08-31T02:50:23;98023.06;;;14.41;74.81
20710;BME280;10516;51.518;9.864;2023-08-31T02:52:48;98041.53;;;14.61;74.53
20710;BME280;10516;51.518;9.864;2023-08-31T02:55:14;98037.50;;;14.45;75.00
20710;BME280;10516;51.518;9.864;2023-08-31T02:57:39;98047.81;;;14.57;74.80
20710;BME280;10516;51.518;9.864;2023-08-31T03:00:05;98037.13;;;14.52;74.67
20710;BME280;10516;51.518;9.864;2023-08-31T03:02:34;98029.03;;;14.38;75.17
20710;BME280;10516;51.518;9.864;2023-08-31T03:04:59;98034.44;;;14.52;74.66
20710;BME280;10516;51.518;9.864;2023-08-31T03:07:26;98038.72;;;14.53;74.53
20710;BME280;10516;51.518;9.864;2023-08-31T03:09:52;98029.53;;;14.40;74.70
20710;BME280;10516;51.518;9.864;2023-08-31T03:12:17;98031.91;;;14.42;74.82
20710;BME280;10516;51.518;9.864;2023-08-31T03:14:42;98040.19;;;14.45;74.68
20710;BME280;10516;51.518;9.864;2023-08-31T03:17:08;98039.75;;;14.57;74.77
20710;BME280;10516;51.518;9.864;2023-08-31T03:19:33;98027.81;;;14.63;73.88
20710;BME280;10516;51.518;9.864;2023-08-31T03:21:58;98038.69;;;14.71;73.88
20710;BME280;10516;51.518;9.864;2023-08-31T03:24:24;98039.19;;;14.73;73.64
20710;BME280;10516;51.518;9.864;2023-08-31T03:26:49;98042.56;;;14.65;74.01
20710;BME280;10516;51.518;9.864;2023-08-31T03:29:14;98048.00;;;14.60;74.36
20710;BME280;10516;51.518;9.864;2023-08-31T03:31:40;98048.81;;;14.61;74.26
20710;BME280;10516;51.518;9.864;2023-08-31T03:34:05;98047.94;;;14.65;74.05
20710;BME280;10516;51.518;9.864;2023-08-31T03:36:30;98054.44;;;14.46;74.47
20710;BME280;10516;51.518;9.864;2023-08-31T03:38:56;98033.72;;;14.46;74.46
20710;BME280;10516;51.518;9.864;2023-08-31T03:41:21;98049.19;;;14.54;74.51
20710;BME280;10516;51.518;9.864;2023-08-31T03:43:47;98046.13;;;14.61;74.12
20710;BME280;10516;51.518;9.864;2023-08-31T03:46:12;98042.81;;;14.13;74.83
20710;BME280;10516;51.518;9.864;2023-08-31T03:48:37;98052.38;;;14.19;75.47
20710;BME280;10516;51.518;9.864;2023-08-31T03:51:03;98044.47;;;14.27;75.05
20710;BME280;10516;51.518;9.864;2023-08-31T03:53:29;98027.44;;;14.00;75.77
20710;BME280;10516;51.518;9.864;2023-08-31T03:55:54;98043.75;;;14.41;75.17
20710;BME280;10516;51.518;9.864;2023-08-31T03:58:19;98028.72;;;14.40;74.76
20710;BME280;10516;51.518;9.864;2023-08-31T04:00:49;98049.81;;;14.46;74.75
20710;BME280;10516;51.518;9.864;2023-08-31T04:03:14;98036.53;;;14.55;74.03
20710;BME280;10516;51.518;9.864;2023-08-31T04:05:39;98036.63;;;14.50;73.90
20710;BME280;10516;51.518;9.864;2023-08-31T04:08:05;98052.81;;;14.45;74.67
20710;BME280;10516;51.518;9.864;2023-08-31T04:10:31;98055.06;;;14.38;74.95
20710;BME280;10516;51.518;9.864;2023-08-31T04:12:58;98052.69;;;14.36;75.09
20710;BME280;10516;51.518;9.864;2023-08-31T04:15:24;98057.47;;;14.39;75.12
20710;BME280;10516;51.518;9.864;2023-08-31T04:17:49;98049.56;;;14.29;75.36
20710;BME280;10516;51.518;9.864;2023-08-31T04:20:15;98054.34;;;14.32;75.26
20710;BME280;10516;51.518;9.864;2023-08-31T04:22:40;98054.25;;;14.18;75.77
20710;BME280;10516;51.518;9.864;2023-08-31T04:25:06;98052.59;;;14.22;75.44
20710;BME280;10516;51.518;9.864;2023-08-31T04:27:32;98065.94;;;14.27;75.32
20710;BME280;10516;51.518;9.864;2023-08-31T04:30:01;98075.06;;;14.26;75.58
20710;BME280;10516;51.518;9.864;2023-08-31T04:32:27;98073.41;;;14.12;76.04
20710;BME280;10516;51.518;9.864;2023-08-31T04:34:53;98083.63;;;14.28;76.10
20710;BME280;10516;51.518;9.864;2023-08-31T04:37:18;98081.41;;;14.17;76.48
20710;BME280;10516;51.518;9.864;2023-08-31T04:39:44;98087.56;;;14.17;76.80
20710;BME280;10516;51.518;9.864;2023-08-31T04:42:09;98095.25;;;14.24;76.54
20710;BME280;10516;51.518;9.864;2023-08-31T04:44:34;98086.50;;;14.37;75.54
20710;BME280;10516;51.518;9.864;2023-08-31T04:47:00;98095.63;;;14.17;76.88
20710;BME280;10516;51.518;9.864;2023-08-31T04:49:26;98094.31;;;14.15;76.73
20710;BME280;10516;51.518;9.864;2023-08-31T04:51:52;98097.00;;;14.34;76.36
20710;BME280;10516;51.518;9.864;2023-08-31T04:54:18;98099.41;;;14.35;75.91
20710;BME280;10516;51.518;9.864;2023-08-31T04:56:43;98093.84;;;14.26;76.12
20710;BME280;10516;51.518;9.864;2023-08-31T04:59:08;98088.84;;;14.20;76.32
20710;BME280;10516;51.518;9.864;2023-08-31T05:01:34;98087.38;;;14.09;76.22
20710;BME280;10516;51.518;9.864;2023-08-31T05:03:59;98114.81;;;14.06;76.97
20710;BME280;10516;51.518;9.864;2023-08-31T05:06:25;98111.03;;;14.07;77.03
20710;BME280;10516;51.518;9.864;2023-08-31T05:08:51;98101.19;;;14.21;76.38
20710;BME280;10516;51.518;9.864;2023-08-31T05:11:16;98116.66;;;14.29;76.06
20710;BME280;10516;51.518;9.864;2023-08-31T05:13:41;98124.91;;;14.14;76.95
20710;BME280;10516;51.518;9.864;2023-08-31T05:16:10;98124.50;;;14.25;76.78
20710;BME280;10516;51.518;9.864;2023-08-31T05:18:36;98119.88;;;14.31;75.80
20710;BME280;10516;51.518;9.864;2023-08-31T05:21:02;98125.25;;;14.07;77.03
20710;BME280;10516;51.518;9.864;2023-08-31T05:23:28;98130.56;;;14.12;77.03
20710;BME280;10516;51.518;9.864;2023-08-31T05:25:54;98129.25;;;14.10;76.75
20710;BME280;10516;51.518;9.864;2023-08-31T05:28:22;98116.09;;;13.90;77.71
20710;BME280;10516;51.518;9.864;2023-08-31T05:30:48;98119.69;;;14.04;76.79
20710;BME280;10516;51.518;9.864;2023-08-31T05:33:15;98128.75;;;14.08;76.92
20710;BME280;10516;51.518;9.864;2023-08-31T05:35:40;98112.19;;;14.01;76.79
20710;BME280;10516;51.518;9.864;2023-08-31T05:38:05;98132.38;;;14.17;76.65
20710;BME280;10516;51.518;9.864;2023-08-31T05:40:31;98134.28;;;14.16;76.72
20710;BME280;10516;51.518;9.864;2023-08-31T05:42:56;98140.00;;;14.10;76.67
20710;BME280;10516;51.518;9.864;2023-08-31T05:45:21;98131.47;;;13.84;77.90
20710;BME280;10516;51.518;9.864;2023-08-31T05:47:47;98124.66;;;13.92;77.67
20710;BME280;10516;51.518;9.864;2023-08-31T05:50:12;98141.91;;;13.86;78.10
20710;BME280;10516;51.518;9.864;2023-08-31T05:52:37;98142.19;;;13.84;78.19
20710;BME280;10516;51.518;9.864;2023-08-31T05:55:03;98142.06;;;13.94;77.67
20710;BME280;10516;51.518;9.864;2023-08-31T05:57:28;98151.31;;;13.83;78.16
20710;BME280;10516;51.518;9.864;2023-08-31T05:59:54;98154.97;;;13.92;78.37
20710;BME280;10516;51.518;9.864;2023-08-31T06:02:19;98152.06;;;13.89;78.42
20710;BME280;10516;51.518;9.864;2023-08-31T06:04:45;98148.69;;;14.02;77.79
20710;BME280;10516;51.518;9.864;2023-08-31T06:07:10;98153.34;;;13.91;78.48
20710;BME280;10516;51.518;9.864;2023-08-31T06:09:35;98153.94;;;13.88;78.72
20710;BME280;10516;51.518;9.864;2023-08-31T06:12:01;98161.00;;;14.03;78.28
20710;BME280;10516;51.518;9.864;2023-08-31T06:14:26;98140.75;;;13.92;78.16
20710;BME280;10516;51.518;9.864;2023-08-31T06:16:51;98158.63;;;14.01;78.40
20710;BME280;10516;51.518;9.864;2023-08-31T06:19:17;98152.22;;;13.97;78.59
20710;BME280;10516;51.518;9.864;2023-08-31T06:21:43;98161.25;;;14.06;78.29
20710;BME280;10516;51.518;9.864;2023-08-31T06:24:08;98153.66;;;13.90;79.05
20710;BME280;10516;51.518;9.864;2023-08-31T06:26:38;98163.63;;;14.08;78.33
20710;BME280;10516;51.518;9.864;2023-08-31T06:29:03;98175.78;;;14.24;77.99
20710;BME280;10516;51.518;9.864;2023-08-31T06:31:29;98174.13;;;14.04;78.53
20710;BME280;10516;51.518;9.864;2023-08-31T06:33:54;98161.16;;;14.11;78.31
20710;BME280;10516;51.518;9.864;2023-08-31T06:36:20;98178.47;;;14.24;77.99
20710;BME280;10516;51.518;9.864;2023-08-31T06:38:45;98175.88;;;13.95;80.13
20710;BME280;10516;51.518;9.864;2023-08-31T06:41:11;98163.13;;;14.06;78.87
20710;BME280;10516;51.518;9.864;2023-08-31T06:43:36;98179.72;;;14.32;77.89
20710;BME280;10516;51.518;9.864;2023-08-31T06:46:01;98173.31;;;14.27;78.43
20710;BME280;10516;51.518;9.864;2023-08-31T06:48:27;98169.38;;;14.20;78.44
20710;BME280;10516;51.518;9.864;2023-08-31T06:50:52;98175.81;;;14.43;77.76
20710;BME280;10516;51.518;9.864;2023-08-31T06:53:17;98174.81;;;14.39;77.23
20710;BME280;10516;51.518;9.864;2023-08-31T06:55:43;98195.69;;;14.42;77.30
20710;BME280;10516;51.518;9.864;2023-08-31T06:58:09;98182.91;;;14.34;77.57
20710;BME280;10516;51.518;9.864;2023-08-31T07:00:34;98191.47;;;14.36;78.06
20710;BME280;10516;51.518;9.864;2023-08-31T07:03:00;98181.91;;;14.30;78.08
20710;BME280;10516;51.518;9.864;2023-08-31T07:05:26;98184.63;;;14.24;78.16
20710;BME280;10516;51.518;9.864;2023-08-31T07:07:53;98195.59;;;14.28;78.79
20710;BME280;10516;51.518;9.864;2023-08-31T07:10:20;98193.97;;;14.32;78.31
20710;BME280;10516;51.518;9.864;2023-08-31T07:12:45;98197.06;;;14.15;78.90
20710;BME280;10516;51.518;9.864;2023-08-31T07:15:10;98206.97;;;14.44;78.07
20710;BME280;10516;51.518;9.864;2023-08-31T07:17:36;98194.06;;;14.46;77.61
20710;BME280;10516;51.518;9.864;2023-08-31T07:20:01;98200.28;;;14.41;78.32
20710;BME280;10516;51.518;9.864;2023-08-31T07:22:31;98209.97;;;14.61;77.42
20710;BME280;10516;51.518;9.864;2023-08-31T07:24:57;98209.00;;;14.70;77.47
20710;BME280;10516;51.518;9.864;2023-08-31T07:27:22;98208.44;;;14.73;76.59
20710;BME280;10516;51.518;9.864;2023-08-31T07:29:48;98202.53;;;14.71;76.67
20710;BME280;10516;51.518;9.864;2023-08-31T07:32:13;98187.16;;;14.58;77.17
20710;BME280;10516;51.518;9.864;2023-08-31T07:34:38;98185.03;;;14.55;77.90
20710;BME280;10516;51.518;9.864;2023-08-31T07:37:04;98194.44;;;14.76;76.64
20710;BME280;10516;51.518;9.864;2023-08-31T07:39:29;98200.31;;;14.78;77.02
20710;BME280;10516;51.518;9.864;2023-08-31T07:41:55;98205.84;;;15.00;75.88
20710;BME280;10516;51.518;9.864;2023-08-31T07:44:20;98195.06;;;14.87;76.33
20710;BME280;10516;51.518;9.864;2023-08-31T07:46:46;98196.50;;;14.98;75.59
20710;BME280;10516;51.518;9.864;2023-08-31T07:49:12;98205.94;;;14.95;76.17
20710;BME280;10516;51.518;9.864;2023-08-31T07:51:37;98218.94;;;14.88;76.61
20710;BME280;10516;51.518;9.864;2023-08-31T07:54:02;98210.59;;;14.90;76.40
20710;BME280;10516;51.518;9.864;2023-08-31T07:56:30;98215.69;;;14.91;76.25
20710;BME280;10516;51.518;9.864;2023-08-31T07:58:56;98237.03;;;15.01;75.06
20710;BME280;10516;51.518;9.864;2023-08-31T08:01:21;98228.63;;;14.89;75.27
20710;BME280;10516;51.518;9.864;2023-08-31T08:03:47;98217.50;;;14.96;75.07
20710;BME280;10516;51.518;9.864;2023-08-31T08:06:12;98218.41;;;15.05;74.75
20710;BME280;10516;51.518;9.864;2023-08-31T08:08:37;98222.34;;;15.13;74.19
20710;BME280;10516;51.518;9.864;2023-08-31T08:11:04;98224.47;;;14.97;74.94
20710;BME280;10516;51.518;9.864;2023-08-31T08:13:31;98237.59;;;15.17;74.58
20710;BME280;10516;51.518;9.864;2023-08-31T08:15:56;98244.34;;;15.15;74.89
20710;BME280;10516;51.518;9.864;2023-08-31T08:18:22;98229.09;;;15.10;74.58
20710;BME280;10516;51.518;9.864;2023-08-31T08:20:48;98224.72;;;15.14;74.66
20710;BME280;10516;51.518;9.864;2023-08-31T08:23:14;98227.97;;;15.30;73.98
20710;BME280;10516;51.518;9.864;2023-08-31T08:25:39;98239.53;;;15.30;73.90
20710;BME280;10516;51.518;9.864;2023-08-31T08:28:05;98246.59;;;15.45;73.87
20710;BME280;10516;51.518;9.864;2023-08-31T08:30:30;98242.81;;;15.46;74.00
20710;BME280;10516;51.518;9.864;2023-08-31T08:32:56;98247.31;;;15.50;73.08
20710;BME280;10516;51.518;9.864;2023-08-31T08:35:22;98241.06;;;15.55;73.61
20710;BME280;10516;51.518;9.864;2023-08-31T08:37:47;98250.25;;;15.67;72.87
20710;BME280;10516;51.518;9.864;2023-08-31T08:40:13;98232.09;;;15.59;72.59
20710;BME280;10516;51.518;9.864;2023-08-31T08:42:41;98246.66;;;15.72;72.80
20710;BME280;10516;51.518;9.864;2023-08-31T08:45:16;98240.19;;;15.73;72.16
20710;BME280;10516;51.518;9.864;2023-08-31T08:47:44;98236.59;;;15.77;72.30
20710;BME280;10516;51.518;9.864;2023-08-31T08:50:12;98238.91;;;15.84;71.87
20710;BME280;10516;51.518;9.864;2023-08-31T08:52:41;98241.50;;;15.89;72.39
20710;BME280;10516;51.518;9.864;2023-08-31T08:55:08;98239.91;;;15.88;71.72
20710;BME280;10516;51.518;9.864;2023-08-31T08:57:34;98242.41;;;15.98;71.19
20710;BME280;10516;51.518;9.864;2023-08-31T09:00:00;98239.50;;;15.81;72.11
20710;BME280;10516;51.518;9.864;2023-08-31T09:02:25;98253.56;;;15.78;72.23
20710;BME280;10516;51.518;9.864;2023-08-31T09:04:50;98238.72;;;15.81;71.13
20710;BME280;10516;51.518;9.864;2023-08-31T09:07:20;98248.16;;;15.78;71.14
20710;BME280;10516;51.518;9.864;2023-08-31T09:09:51;98224.56;;;15.89;70.86
20710;BME280;10516;51.518;9.864;2023-08-31T09:12:17;98228.75;;;15.95;69.70
20710;BME280;10516;51.518;9.864;2023-08-31T09:14:42;98238.44;;;15.96;70.00
20710;BME280;10516;51.518;9.864;2023-08-31T09:17:08;98215.09;;;15.91;69.97
20710;BME280;10516;51.518;9.864;2023-08-31T09:19:33;98235.25;;;16.07;69.34
20710;BME280;10516;51.518;9.864;2023-08-31T09:21:59;98228.03;;;16.16;69.55
20710;BME280;10516;51.518;9.864;2023-08-31T09:24:25;98218.69;;;16.14;68.64
20710;BME280;10516;51.518;9.864;2023-08-31T09:26:57;98226.06;;;16.22;69.38
20710;BME280;10516;51.518;9.864;2023-08-31T09:29:23;98215.13;;;16.18;68.85
20710;BME280;10516;51.518;9.864;2023-08-31T09:31:49;98242.50;;;16.34;68.35
20710;BME280;10516;51.518;9.864;2023-08-31T09:34:15;98246.09;;;16.43;68.07
20710;BME280;10516;51.518;9.864;2023-08-31T09:36:41;98233.44;;;16.30;67.52
20710;BME280;10516;51.518;9.864;2023-08-31T09:39:07;98228.16;;;16.38;67.82
20710;BME280;10516;51.518;9.864;2023-08-31T09:41:34;98236.44;;;16.56;67.50
20710;BME280;10516;51.518;9.864;2023-08-31T09:44:17;98237.59;;;16.49;66.77
20710;BME280;10516;51.518;9.864;2023-08-31T09:46:44;98241.53;;;16.57;67.58
20710;BME280;10516;51.518;9.864;2023-08-31T09:49:11;98235.44;;;16.52;67.39
20710;BME280;10516;51.518;9.864;2023-08-31T09:51:39;98233.84;;;16.64;65.52
20710;BME280;10516;51.518;9.864;2023-08-31T09:54:07;98217.16;;;16.62;65.81
20710;BME280;10516;51.518;9.864;2023-08-31T09:56:35;98220.59;;;16.90;64.63
20710;BME280;10516;51.518;9.864;2023-08-31T09:59:02;98238.81;;;17.06;65.16
20710;BME280;10516;51.518;9.864;2023-08-31T10:01:28;98223.06;;;17.00;65.10
20710;BME280;10516;51.518;9.864;2023-08-31T10:03:53;98233.63;;;17.10;65.21
20710;BME280;10516;51.518;9.864;2023-08-31T10:06:20;98221.47;;;16.99;65.56
20710;BME280;10516;51.518;9.864;2023-08-31T10:08:47;98220.63;;;17.12;64.57
20710;BME280;10516;51.518;9.864;2023-08-31T10:11:13;98219.28;;;17.01;64.92
20710;BME280;10516;51.518;9.864;2023-08-31T10:13:41;98229.81;;;17.11;63.81
20710;BME280;10516;51.518;9.864;2023-08-31T10:16:06;98214.75;;;17.10;64.10
20710;BME280;10516;51.518;9.864;2023-08-31T10:18:34;98224.63;;;17.14;63.51
20710;BME280;10516;51.518;9.864;2023-08-31T10:21:01;98217.34;;;17.23;62.60
20710;BME280;10516;51.518;9.864;2023-08-31T10:23:27;98218.53;;;17.31;62.68
20710;BME280;10516;51.518;9.864;2023-08-31T10:28:26;98225.94;;;17.70;62.20
20710;BME280;10516;51.518;9.864;2023-08-31T10:31:06;98235.34;;;17.72;62.14
20710;BME280;10516;51.518;9.864;2023-08-31T10:33:34;98226.31;;;17.77;62.35
20710;BME280;10516;51.518;9.864;2023-08-31T10:36:00;98246.28;;;17.76;62.68
20710;BME280;10516;51.518;9.864;2023-08-31T10:38:30;98214.06;;;17.71;60.79
20710;BME280;10516;51.518;9.864;2023-08-31T10:41:22;98226.50;;;17.89;60.75
20710;BME280;10516;51.518;9.864;2023-08-31T10:46:27;98233.41;;;17.95;59.97
20710;BME280;10516;51.518;9.864;2023-08-31T10:51:41;98233.13;;;17.74;61.02
20710;BME280;10516;51.518;9.864;2023-08-31T10:54:25;98229.53;;;17.57;61.42
20710;BME280;10516;51.518;9.864;2023-08-31T10:59:23;98243.84;;;17.44;62.31
20710;BME280;10516;51.518;9.864;2023-08-31T11:04:21;98249.91;;;17.05;63.07
20710;BME280;10516;51.518;9.864;2023-08-31T11:06:47;98255.84;;;16.80;63.91
20710;BME280;10516;51.518;9.864;2023-08-31T11:09:20;98269.44;;;16.47;65.82
20710;BME280;10516;51.518;9.864;2023-08-31T11:11:46;98294.78;;;16.33;67.25
20710;BME280;10516;51.518;9.864;2023-08-31T11:14:12;98276.72;;;16.06;68.58
20710;BME280;10516;51.518;9.864;2023-08-31T11:16:38;98305.06;;;16.17;68.95
20710;BME280;10516;51.518;9.864;2023-08-31T11:19:04;98301.22;;;15.91;69.89
20710;BME280;10516;51.518;9.864;2023-08-31T11:21:30;98291.69;;;15.66;70.41
20710;BME280;10516;51.518;9.864;2023-08-31T11:23:57;98296.47;;;15.69;70.87
20710;BME280;10516;51.518;9.864;2023-08-31T11:26:25;98297.81;;;15.35;72.07
20710;BME280;10516;51.518;9.864;2023-08-31T11:28:51;98302.13;;;15.54;72.17
20710;BME280;10516;51.518;9.864;2023-08-31T11:31:23;98279.78;;;15.54;71.56
20710;BME280;10516;51.518;9.864;2023-08-31T11:33:49;98278.22;;;15.53;72.18
20710;BME280;10516;51.518;9.864;2023-08-31T11:36:14;98272.22;;;15.56;72.42
20710;BME280;10516;51.518;9.864;2023-08-31T11:38:43;98267.69;;;15.70;71.82
20710;BME280;10516;51.518;9.864;2023-08-31T11:41:08;98279.97;;;15.76;71.85
20710;BME280;10516;51.518;9.864;2023-08-31T11:43:34;98271.78;;;15.67;72.55
20710;BME280;10516;51.518;9.864;2023-08-31T11:46:00;98282.19;;;15.88;72.23
20710;BME280;10516;51.518;9.864;2023-08-31T11:48:26;98270.34;;;16.02;71.89
20710;BME280;10516;51.518;9.864;2023-08-31T11:50:52;98257.16;;;15.87;72.40
20710;BME280;10516;51.518;9.864;2023-08-31T11:53:18;98249.78;;;15.79;72.39
20710;BME280;10516;51.518;9.864;2023-08-31T11:55:53;98254.47;;;15.87;72.40
20710;BME280;10516;51.518;9.864;2023-08-31T11:58:21;98251.84;;;15.82;75.32
20710;BME280;10516;51.518;9.864;2023-08-31T12:00:59;98254.16;;;15.89;74.30
20710;BME280;10516;51.518;9.864;2023-08-31T12:03:26;98241.50;;;16.30;73.79
20710;BME280;10516;51.518;9.864;2023-08-31T12:05:52;98257.50;;;16.40;75.65
20710;BME280;10516;51.518;9.864;2023-08-31T12:08:26;98238.81;;;16.71;74.53
20710;BME280;10516;51.518;9.864;2023-08-31T12:10:53;98247.47;;;16.95;72.80
20710;BME280;10516;51.518;9.864;2023-08-31T12:13:18;98257.72;;;16.93;73.25
20710;BME280;10516;51.518;9.864;2023-08-31T12:15:43;98252.31;;;16.93;72.12
20710;BME280;10516;51.518;9.864;2023-08-31T12:18:13;98265.91;;;17.01;72.99
20710;BME280;10516;51.518;9.864;2023-08-31T12:20:46;98261.50;;;17.05;72.86
20710;BME280;10516;51.518;9.864;2023-08-31T12:23:12;98262.66;;;17.13;72.24
20710;BME280;10516;51.518;9.864;2023-08-31T12:25:45;98249.44;;;16.89;74.56
20710;BME280;10516;51.518;9.864;2023-08-31T12:28:10;98265.22;;;16.96;72.82
20710;BME280;10516;51.518;9.864;2023-08-31T12:30:36;98259.28;;;16.72;73.71
20710;BME280;10516;51.518;9.864;2023-08-31T12:33:01;98255.56;;;16.81;72.00
20710;BME280;10516;51.518;9.864;2023-08-31T12:35:27;98251.16;;;16.85;71.80
20710;BME280;10516;51.518;9.864;2023-08-31T12:37:53;98253.97;;;16.80;74.05
20710;BME280;10516;51.518;9.864;2023-08-31T12:40:19;98244.78;;;16.81;72.08
20710;BME280;10516;51.518;9.864;2023-08-31T12:42:45;98251.25;;;16.94;75.62
20710;BME280;10516;51.518;9.864;2023-08-31T12:45:10;98253.03;;;16.98;76.02
20710;BME280;10516;51.518;9.864;2023-08-31T12:47:36;98248.31;;;17.48;71.63
20710;BME280;10516;51.518;9.864;2023-08-31T12:50:01;98228.59;;;17.39;72.59
20710;BME280;10516;51.518;9.864;2023-08-31T12:52:28;98263.19;;;17.59;71.46
20710;BME280;10516;51.518;9.864;2023-08-31T12:54:53;98266.97;;;17.80;70.52
20710;BME280;10516;51.518;9.864;2023-08-31T12:57:19;98269.38;;;17.82;70.32
20710;BME280;10516;51.518;9.864;2023-08-31T12:59:44;98282.03;;;17.73;70.63
20710;BME280;10516;51.518;9.864;2023-08-31T13:02:09;98283.88;;;17.64;70.27
20710;BME280;10516;51.518;9.864;2023-08-31T13:04:37;98292.03;;;17.50;70.55
20710;BME280;10516;51.518;9.864;2023-08-31T13:07:02;98280.75;;;17.35;70.61
20710;BME280;10516;51.518;9.864;2023-08-31T13:09:29;98281.44;;;17.18;71.27
20710;BME280;10516;51.518;9.864;2023-08-31T13:11:55;98278.44;;;17.06;71.83